createdAt,value
2018-11-13T00:02:14.756Z,81.02
2018-11-13T00:04:45.095Z,80.99
2018-11-13T00:07:15.420Z,81.15
2018-11-13T00:10:01.562Z,81.15
2018-11-13T00:12:32.169Z,81.36
2018-11-13T00:15:02.808Z,81.39
2018-11-13T00:17:33.437Z,81.44
2018-11-13T00:20:04.423Z,81.18
2018-11-13T00:22:35.214Z,81.51
2018-11-13T00:25:07.159Z,81.43
2018-11-13T00:27:37.821Z,82.03
2018-11-13T00:30:12.409Z,81.60
2018-11-13T00:32:43.532Z,81.37
2018-11-13T00:35:14.944Z,81.41
2018-11-13T00:37:46.489Z,81.62
2018-11-13T00:40:18.134Z,81.69
2018-11-13T00:42:49.223Z,81.63
2018-11-13T00:45:20.025Z,81.41
2018-11-13T00:47:51.473Z,81.39
2018-11-13T00:50:22.153Z,81.85
2018-11-13T00:52:53.091Z,81.76
2018-11-13T00:55:23.657Z,81.47
2018-11-13T00:57:54.223Z,81.99
2018-11-13T01:00:25.248Z,82.02
2018-11-13T01:02:56.276Z,81.82
2018-11-13T01:05:26.932Z,81.97
2018-11-13T01:07:57.663Z,82.07
2018-11-13T01:10:28.252Z,81.57
2018-11-13T01:12:58.844Z,81.74
2018-11-13T01:15:29.408Z,81.83
2018-11-13T01:18:00.033Z,81.72
2018-11-13T01:20:30.616Z,81.43
2018-11-13T01:23:01.215Z,81.91
2018-11-13T01:25:31.835Z,82.25
2018-11-13T01:28:02.492Z,82.40
2018-11-13T01:30:33.066Z,82.45
2018-11-13T01:33:03.860Z,82.49
2018-11-13T01:35:34.459Z,82.55
2018-11-13T01:38:05.096Z,82.97
2018-11-13T01:40:35.804Z,82.36
2018-11-13T01:43:07.139Z,82.73
2018-11-13T01:45:37.751Z,83.09
2018-11-13T01:48:09.060Z,82.83
2018-11-13T01:50:39.520Z,83.19
2018-11-13T01:53:10.117Z,83.12
2018-11-13T01:55:41.012Z,83.57
2018-11-13T01:58:11.625Z,83.67
2018-11-13T02:00:42.228Z,83.81
2018-11-13T02:03:12.980Z,83.61
2018-11-13T02:05:44.718Z,84.10
2018-11-13T02:08:15.284Z,83.28
2018-11-13T02:10:45.913Z,83.67
2018-11-13T02:13:16.524Z,83.63
2018-11-13T02:15:47.149Z,84.03
2018-11-13T02:18:19.485Z,84.53
2018-11-13T02:20:49.772Z,84.77
2018-11-13T02:23:20.347Z,85.37
2018-11-13T02:25:50.957Z,85.14
2018-11-13T02:28:21.747Z,85.47
2018-11-13T02:30:52.341Z,85.47
2018-11-13T02:33:22.932Z,85.89
2018-11-13T02:35:53.628Z,85.75
2018-11-13T02:38:24.366Z,86.08
2018-11-13T02:40:54.993Z,86.20
2018-11-13T02:43:25.672Z,86.09
2018-11-13T02:45:56.316Z,86.08
2018-11-13T02:48:26.926Z,86.13
2018-11-13T02:50:57.762Z,85.84
2018-11-13T02:53:28.381Z,85.93
2018-11-13T02:55:59.012Z,86.47
2018-11-13T02:58:29.640Z,86.25
2018-11-13T03:01:00.265Z,86.55
2018-11-13T03:03:31.108Z,86.74
2018-11-13T03:06:01.781Z,86.11
2018-11-13T03:08:32.359Z,86.97
2018-11-13T03:11:02.954Z,86.82
2018-11-13T03:13:33.579Z,86.77
2018-11-13T03:16:04.607Z,87.11
2018-11-13T03:18:35.903Z,86.94
2018-11-13T03:21:06.772Z,86.70
2018-11-13T03:23:37.431Z,86.98
2018-11-13T03:26:08.433Z,86.70
2018-11-13T03:28:39.031Z,86.07
2018-11-13T03:31:09.701Z,85.83
2018-11-13T03:33:40.463Z,85.72
2018-11-13T03:36:11.171Z,85.85
2018-11-13T03:38:41.953Z,86.18
2018-11-13T03:41:12.850Z,86.56
2018-11-13T03:43:43.485Z,86.79
2018-11-13T03:46:14.351Z,86.41
2018-11-13T03:48:45.063Z,86.80
2018-11-13T03:51:16.159Z,86.74
2018-11-13T03:53:46.769Z,86.74
2018-11-13T03:56:17.351Z,86.51
2018-11-13T03:58:47.975Z,87.05
2018-11-13T04:01:18.663Z,86.69
2018-11-13T04:03:49.321Z,87.19
2018-11-13T04:06:19.965Z,87.13
2018-11-13T04:08:51.252Z,87.25
2018-11-13T04:11:21.856Z,87.09
2018-11-13T04:13:52.453Z,87.00
2018-11-13T04:16:23.011Z,86.68
2018-11-13T04:18:53.625Z,86.74
2018-11-13T04:21:24.504Z,87.33
2018-11-13T04:23:55.311Z,87.24
2018-11-13T04:26:26.197Z,87.21
2018-11-13T04:28:57.148Z,86.42
2018-11-13T04:31:27.760Z,86.62
2018-11-13T04:33:58.408Z,86.45
2018-11-13T04:36:29.037Z,86.28
2018-11-13T04:38:59.424Z,86.73
2018-11-13T04:41:29.775Z,86.65
2018-11-13T04:44:00.623Z,86.26
2018-11-13T04:46:31.208Z,86.41
2018-11-13T04:49:01.808Z,86.64
2018-11-13T04:51:32.535Z,86.65
2018-11-13T04:54:03.241Z,86.54
2018-11-13T04:56:34.040Z,86.74
2018-11-13T04:59:05.264Z,86.40
2018-11-13T05:01:35.971Z,86.47
2018-11-13T05:04:07.132Z,86.48
2018-11-13T05:06:38.352Z,86.37
2018-11-13T05:09:09.113Z,86.65
2018-11-13T05:11:39.740Z,86.42
2018-11-13T05:14:10.332Z,86.70
2018-11-13T05:16:41.365Z,86.53
2018-11-13T05:19:11.949Z,86.71
2018-11-13T05:21:43.152Z,86.35
2018-11-13T05:24:13.991Z,86.65
2018-11-13T05:26:44.655Z,86.50
2018-11-13T05:29:15.296Z,86.18
2018-11-13T05:31:45.871Z,86.63
2018-11-13T05:34:16.461Z,86.30
2018-11-13T05:36:47.310Z,86.36
2018-11-13T05:39:18.005Z,86.18
2018-11-13T05:41:48.947Z,86.12
2018-11-13T05:44:19.728Z,86.11
2018-11-13T05:46:50.517Z,86.27
2018-11-13T05:49:21.192Z,86.52
2018-11-13T05:51:51.788Z,86.22
2018-11-13T05:54:22.462Z,86.21
2018-11-13T05:56:53.047Z,86.35
2018-11-13T05:59:24.006Z,86.24
2018-11-13T06:01:54.683Z,85.94
2018-11-13T06:04:25.036Z,85.83
2018-11-13T06:06:55.828Z,85.92
2018-11-13T06:09:26.658Z,86.02
2018-11-13T06:11:57.567Z,85.76
2018-11-13T06:14:28.192Z,86.06
2018-11-13T06:16:58.861Z,86.29
2018-11-13T06:19:29.732Z,86.19
2018-11-13T06:22:00.348Z,85.85
2018-11-13T06:24:30.955Z,86.04
2018-11-13T06:27:01.534Z,85.93
2018-11-13T06:29:32.248Z,85.71
2018-11-13T06:32:02.982Z,85.87
2018-11-13T06:34:33.802Z,86.13
2018-11-13T06:37:04.379Z,86.14
2018-11-13T06:39:34.987Z,86.57
2018-11-13T06:42:05.939Z,86.24
2018-11-13T06:44:36.286Z,86.57
2018-11-13T06:47:07.520Z,86.30
2018-11-13T06:49:38.139Z,86.47
2018-11-13T06:52:08.952Z,86.50
2018-11-13T06:54:55.692Z,86.46
2018-11-13T06:57:26.283Z,86.12
2018-11-13T06:59:56.894Z,86.14
2018-11-13T07:02:28.433Z,86.02
2018-11-13T07:04:59.326Z,86.22
2018-11-13T07:07:30.366Z,86.25
2018-11-13T07:10:00.939Z,85.90
2018-11-13T07:12:31.864Z,86.25
2018-11-13T07:15:02.444Z,86.07
2018-11-13T07:17:33.312Z,86.06
2018-11-13T07:20:04.269Z,85.90
2018-11-13T07:22:34.883Z,86.20
2018-11-13T07:25:05.983Z,86.42
2018-11-13T07:27:36.843Z,86.03
2018-11-13T07:30:10.268Z,86.07
2018-11-13T07:32:41.363Z,86.13
2018-11-13T07:35:13.284Z,86.36
2018-11-13T07:37:59.324Z,85.95
2018-11-13T07:40:30.019Z,86.07
2018-11-13T07:43:01.685Z,86.03
2018-11-13T07:45:32.276Z,85.51
2018-11-13T07:48:03.288Z,85.39
2018-11-13T07:50:33.964Z,85.39
2018-11-13T07:53:04.552Z,85.65
2018-11-13T07:55:35.125Z,85.56
2018-11-13T07:58:06.000Z,85.31
2018-11-13T08:00:36.588Z,85.56
2018-11-13T08:03:24.072Z,85.49
2018-11-13T08:05:54.591Z,86.05
2018-11-13T08:08:25.192Z,85.83
2018-11-13T08:10:55.976Z,85.51
2018-11-13T08:13:26.558Z,85.90
2018-11-13T08:15:57.321Z,85.37
2018-11-13T08:18:27.923Z,85.57
2018-11-13T08:20:58.826Z,85.52
2018-11-13T08:23:29.582Z,85.96
2018-11-13T08:26:00.217Z,85.84
2018-11-13T08:28:30.845Z,85.65
2018-11-13T08:31:01.623Z,85.96
2018-11-13T08:33:32.214Z,86.17
2018-11-13T08:36:02.823Z,85.85
2018-11-13T08:38:34.423Z,86.19
2018-11-13T08:41:06.376Z,85.93
2018-11-13T08:43:36.735Z,86.03
2018-11-13T08:46:07.547Z,86.13
2018-11-13T08:48:38.163Z,85.91
2018-11-13T08:51:08.737Z,85.62
2018-11-13T08:53:39.319Z,85.29
2018-11-13T08:56:09.919Z,84.88
2018-11-13T08:58:40.512Z,85.52
2018-11-13T09:01:11.360Z,85.36
2018-11-13T09:03:42.957Z,85.85
2018-11-13T09:06:13.617Z,85.90
2018-11-13T09:08:44.202Z,86.16
2018-11-13T09:11:14.813Z,85.92
2018-11-13T09:13:45.588Z,85.72
2018-11-13T09:16:16.399Z,85.88
2018-11-13T09:18:47.243Z,85.72
2018-11-13T09:21:18.188Z,86.05
2018-11-13T09:23:48.759Z,86.03
2018-11-13T09:26:19.684Z,85.38
2018-11-13T09:28:50.299Z,85.21
2018-11-13T09:31:21.615Z,85.22
2018-11-13T09:33:52.420Z,84.75
2018-11-13T09:36:22.988Z,84.60
2018-11-13T09:38:53.591Z,84.70
2018-11-13T09:41:24.352Z,83.91
2018-11-13T09:43:54.953Z,84.01
2018-11-13T09:46:25.568Z,83.90
2018-11-13T09:48:56.316Z,83.92
2018-11-13T09:51:26.896Z,83.25
2018-11-13T09:53:57.507Z,83.08
2018-11-13T09:56:28.141Z,83.03
2018-11-13T09:58:59.015Z,83.27
2018-11-13T10:01:30.086Z,83.03
2018-11-13T10:04:01.329Z,83.15
2018-11-13T10:06:31.483Z,82.91
2018-11-13T10:09:02.179Z,82.89
2018-11-13T10:11:32.497Z,81.72
2018-11-13T10:14:03.108Z,82.67
2018-11-13T10:16:33.730Z,82.76
2018-11-13T10:19:04.530Z,82.30
2018-11-13T10:21:35.192Z,82.58
2018-11-13T10:24:06.871Z,82.04
2018-11-13T10:26:37.469Z,81.60
2018-11-13T10:29:08.423Z,81.93
2018-11-13T10:31:39.040Z,81.74
2018-11-13T10:34:09.837Z,81.81
2018-11-13T10:36:40.437Z,81.21
2018-11-13T10:39:11.528Z,81.50
2018-11-13T10:41:42.370Z,80.90
2018-11-13T10:44:12.944Z,80.92
2018-11-13T10:46:43.531Z,80.63
2018-11-13T10:49:14.153Z,80.78
2018-11-13T10:51:45.237Z,80.86
2018-11-13T10:54:15.808Z,81.31
2018-11-13T10:56:46.420Z,81.63
2018-11-13T10:59:17.021Z,81.59
2018-11-13T11:01:52.931Z,80.92
2018-11-13T11:04:29.072Z,80.60
2018-11-13T11:06:59.952Z,80.38
2018-11-13T11:09:30.628Z,80.19
2018-11-13T11:12:01.200Z,80.73
2018-11-13T11:14:31.537Z,80.48
2018-11-13T11:17:02.277Z,80.96
2018-11-13T11:19:32.953Z,81.14
2018-11-13T11:22:04.085Z,80.95
2018-11-13T11:24:34.665Z,80.87
2018-11-13T11:27:05.644Z,80.54
2018-11-13T11:29:36.207Z,80.89
2018-11-13T11:32:07.284Z,81.04
2018-11-13T11:34:37.892Z,80.85
2018-11-13T11:37:09.438Z,80.48
2018-11-13T11:39:40.006Z,80.32
2018-11-13T11:42:10.698Z,80.34
2018-11-13T11:44:44.112Z,80.36
2018-11-13T11:47:15.004Z,80.75
2018-11-13T11:49:45.607Z,80.61
2018-11-13T11:52:16.559Z,80.29
2018-11-13T11:54:47.152Z,80.07
2018-11-13T11:57:17.762Z,80.72
2018-11-13T11:59:48.364Z,80.53
2018-11-13T12:02:19.394Z,80.66
2018-11-13T12:04:50.196Z,80.52
2018-11-13T12:07:20.797Z,80.62
2018-11-13T12:09:51.493Z,80.30
2018-11-13T12:12:22.162Z,80.13
2018-11-13T12:14:52.908Z,79.92
2018-11-13T12:17:23.507Z,80.51
2018-11-13T12:19:54.437Z,79.80
2018-11-13T12:22:25.004Z,80.22
2018-11-13T12:24:55.651Z,79.71
2018-11-13T12:27:26.601Z,80.02
2018-11-13T12:29:57.272Z,79.57
2018-11-13T12:32:28.086Z,79.57
2018-11-13T12:34:58.776Z,80.43
2018-11-13T12:37:29.378Z,79.57
2018-11-13T12:39:59.980Z,80.03
2018-11-13T12:42:30.650Z,79.97
2018-11-13T12:45:01.260Z,80.02
2018-11-13T12:47:32.600Z,80.17
2018-11-13T12:50:03.233Z,80.44
2018-11-13T12:52:34.584Z,79.21
2018-11-13T12:55:07.084Z,79.04
2018-11-13T12:57:37.771Z,79.53
2018-11-13T13:00:17.348Z,78.07
2018-11-13T13:02:47.962Z,77.57
2018-11-13T13:05:18.608Z,77.48
2018-11-13T13:07:49.247Z,77.80
2018-11-13T13:10:20.761Z,77.41
2018-11-13T13:12:51.723Z,77.22
2018-11-13T13:15:22.352Z,76.39
2018-11-13T13:17:52.979Z,76.81
2018-11-13T13:20:25.263Z,76.69
2018-11-13T13:22:55.900Z,76.04
2018-11-13T13:25:26.499Z,75.46
2018-11-13T13:27:57.126Z,75.05
2018-11-13T13:30:27.855Z,74.74
2018-11-13T13:32:59.283Z,74.87
2018-11-13T13:36:02.537Z,73.62
2018-11-13T13:38:34.963Z,74.04
2018-11-13T13:41:06.288Z,73.57
2018-11-13T13:43:36.704Z,73.41
2018-11-13T13:46:07.320Z,74.33
2018-11-13T13:48:38.699Z,72.96
2018-11-13T13:51:09.318Z,73.10
2018-11-13T13:53:40.358Z,71.89
2018-11-13T13:56:11.085Z,72.08
2018-11-13T13:58:41.702Z,72.72
2018-11-13T14:01:12.090Z,72.60
2018-11-13T14:03:42.912Z,72.43
2018-11-13T14:06:13.760Z,72.79
2018-11-13T14:08:44.428Z,72.11
2018-11-13T14:11:15.175Z,72.20
2018-11-13T14:13:45.807Z,72.01
2018-11-13T14:16:16.441Z,72.09
2018-11-13T14:18:47.047Z,72.36
2018-11-13T14:21:17.663Z,72.11
2018-11-13T14:23:48.264Z,72.08
2018-11-13T14:26:18.884Z,71.67
2018-11-13T14:28:49.518Z,72.37
2018-11-13T14:31:20.296Z,72.23
2018-11-13T14:33:50.922Z,71.94
2018-11-13T14:36:22.748Z,71.44
2018-11-13T14:38:54.765Z,71.65
2018-11-13T14:41:25.428Z,71.84
2018-11-13T14:43:56.023Z,72.18
2018-11-13T14:46:26.689Z,72.31
2018-11-13T14:48:57.485Z,71.97
2018-11-13T14:51:28.316Z,72.10
2018-11-13T14:53:58.958Z,72.29
2018-11-13T14:56:29.732Z,72.23
2018-11-13T14:59:00.322Z,72.41
2018-11-13T15:01:30.932Z,72.79
2018-11-13T15:04:01.738Z,73.55
2018-11-13T15:06:32.736Z,73.58
2018-11-13T15:09:05.111Z,73.21
2018-11-13T15:11:35.749Z,73.94
2018-11-13T15:14:06.477Z,73.92
2018-11-13T15:16:37.066Z,74.15
2018-11-13T15:19:08.051Z,74.42
2018-11-13T15:21:38.705Z,74.02
2018-11-13T15:24:10.340Z,74.08
2018-11-13T15:26:41.116Z,74.17
2018-11-13T15:29:11.733Z,74.03
2018-11-13T15:31:42.591Z,74.31
2018-11-13T15:34:13.234Z,74.54
2018-11-13T15:36:44.198Z,75.09
2018-11-13T15:39:14.588Z,74.86
2018-11-13T15:41:45.195Z,75.33
2018-11-13T15:44:15.829Z,75.16
2018-11-13T15:46:46.420Z,75.18
2018-11-13T15:49:17.204Z,75.33
2018-11-13T15:51:47.974Z,75.14
2018-11-13T15:54:18.667Z,75.40
2018-11-13T15:56:49.296Z,75.58
2018-11-13T15:59:19.940Z,74.96
2018-11-13T16:01:50.565Z,75.56
2018-11-13T16:04:21.204Z,75.36
2018-11-13T16:06:52.011Z,75.71
2018-11-13T16:09:22.832Z,75.98
2018-11-13T16:11:53.489Z,75.94
2018-11-13T16:14:24.117Z,76.02
2018-11-13T16:16:54.715Z,75.58
2018-11-13T16:19:25.524Z,75.68
2018-11-13T16:21:56.160Z,75.61
2018-11-13T16:24:26.975Z,75.87
2018-11-13T16:26:57.560Z,76.19
2018-11-13T16:29:28.144Z,76.48
2018-11-13T16:31:58.856Z,76.16
2018-11-13T16:34:29.744Z,76.46
2018-11-13T16:37:04.234Z,76.69
2018-11-13T16:39:35.039Z,76.56
2018-11-13T16:42:05.786Z,76.89
2018-11-13T16:44:36.618Z,77.05
2018-11-13T16:47:07.759Z,76.81
2018-11-13T16:49:38.384Z,77.03
2018-11-13T16:52:09.049Z,76.88
2018-11-13T16:54:44.901Z,77.15
2018-11-13T16:57:16.728Z,77.11
2018-11-13T16:59:47.785Z,77.35
2018-11-13T17:02:18.427Z,75.50
2018-11-13T17:04:49.208Z,76.72
2018-11-13T17:07:20.846Z,78.11
2018-11-13T17:09:51.560Z,77.88
2018-11-13T17:12:22.169Z,78.25
2018-11-13T17:14:53.552Z,78.34
2018-11-13T17:17:24.551Z,79.02
2018-11-13T17:19:55.644Z,78.92
2018-11-13T17:22:26.291Z,78.71
2018-11-13T17:24:56.940Z,79.15
2018-11-13T17:27:27.582Z,79.87
2018-11-13T17:29:58.508Z,80.18
2018-11-13T17:32:29.292Z,79.93
2018-11-13T17:35:00.188Z,80.03
2018-11-13T17:37:30.826Z,79.00
2018-11-13T17:40:02.939Z,80.07
2018-11-13T17:42:33.741Z,79.25
2018-11-13T17:45:04.585Z,79.08
2018-11-13T17:47:35.189Z,78.40
2018-11-13T17:50:12.025Z,79.58
2018-11-13T17:52:43.537Z,79.23
2018-11-13T17:55:15.404Z,79.49
2018-11-13T17:57:46.904Z,79.82
2018-11-13T18:00:27.744Z,79.63
2018-11-13T18:02:58.463Z,79.66
2018-11-13T18:05:29.841Z,80.13
2018-11-13T18:08:01.353Z,79.21
2018-11-13T18:10:32.926Z,79.13
2018-11-13T18:13:03.640Z,79.79
2018-11-13T18:15:34.256Z,79.35
2018-11-13T18:18:05.526Z,79.21
2018-11-13T18:20:37.231Z,79.34
2018-11-13T18:23:09.256Z,79.42
2018-11-13T18:25:39.632Z,80.10
2018-11-13T18:28:11.015Z,80.42
2018-11-13T18:30:41.972Z,79.79
2018-11-13T18:33:12.818Z,79.24
2018-11-13T18:35:43.476Z,80.56
2018-11-13T18:38:15.741Z,80.85
2018-11-13T18:40:46.693Z,78.97
2018-11-13T18:43:17.347Z,78.33
2018-11-13T18:45:48.284Z,78.90
2018-11-13T18:48:19.235Z,79.93
2018-11-13T18:50:50.208Z,80.25
2018-11-13T18:53:22.086Z,80.95
2018-11-13T18:55:53.016Z,81.02
2018-11-13T18:58:23.646Z,80.65
2018-11-13T19:00:54.533Z,81.12
2018-11-13T19:03:25.454Z,81.01
2018-11-13T19:05:56.372Z,80.50
2018-11-13T19:08:27.620Z,80.95
2018-11-13T19:10:58.413Z,81.03
2018-11-13T19:13:29.282Z,80.85
2018-11-13T19:16:04.237Z,80.96
2018-11-13T19:18:34.962Z,81.37
2018-11-13T19:21:06.482Z,81.54
2018-11-13T19:23:37.498Z,80.71
2018-11-13T19:26:08.272Z,80.38
2018-11-13T19:28:38.940Z,80.65
2018-11-13T19:31:09.643Z,81.16
2018-11-13T19:33:40.392Z,80.84
2018-11-13T19:36:11.365Z,80.60
2018-11-13T19:38:42.053Z,81.84
2018-11-13T19:41:12.868Z,82.10
2018-11-13T19:43:43.476Z,82.20
2018-11-13T19:46:14.101Z,80.83
2018-11-13T19:48:45.651Z,80.76
2018-11-13T19:51:16.351Z,80.33
2018-11-13T19:53:46.994Z,81.49
2018-11-13T19:56:17.833Z,81.18
2018-11-13T19:58:48.583Z,81.36
2018-11-13T20:01:19.617Z,81.41
2018-11-13T20:03:50.252Z,80.76
2018-11-13T20:06:20.935Z,81.72
2018-11-13T20:08:51.553Z,81.93
2018-11-13T20:11:22.244Z,82.01
2018-11-13T20:13:59.651Z,81.71
2018-11-13T20:16:30.541Z,82.14
2018-11-13T20:19:01.119Z,82.27
2018-11-13T20:21:32.857Z,81.38
2018-11-13T20:24:04.061Z,81.07
2018-11-13T20:26:34.840Z,81.90
2018-11-13T20:29:06.063Z,81.90
2018-11-13T20:31:36.861Z,82.04
2018-11-13T20:34:08.080Z,81.42
2018-11-13T20:36:38.669Z,81.38
2018-11-13T20:39:12.940Z,81.65
2018-11-13T20:41:43.524Z,81.21
2018-11-13T20:44:14.132Z,81.95
2018-11-13T20:46:44.707Z,81.43
2018-11-13T20:49:15.319Z,81.98
2018-11-13T20:51:45.948Z,81.68
2018-11-13T20:54:16.532Z,81.29
2018-11-13T20:56:47.161Z,80.86
2018-11-13T20:59:17.463Z,82.41
2018-11-13T21:01:48.132Z,81.39
2018-11-13T21:04:18.923Z,81.13
2018-11-13T21:06:50.820Z,80.76
2018-11-13T21:09:21.450Z,80.78
2018-11-13T21:11:52.393Z,82.05
2018-11-13T21:14:23.015Z,81.82
2018-11-13T21:16:53.712Z,81.89
2018-11-13T21:19:24.473Z,81.94
2018-11-13T21:21:55.379Z,82.39
2018-11-13T21:24:26.225Z,81.69
2018-11-13T21:26:56.570Z,81.33
2018-11-13T21:29:27.412Z,81.80
2018-11-13T21:31:58.348Z,82.61
2018-11-13T21:34:29.332Z,81.71
2018-11-13T21:37:00.920Z,81.72
2018-11-13T21:39:31.616Z,82.14
2018-11-13T21:42:03.298Z,82.33
2018-11-13T21:44:33.899Z,82.71
2018-11-13T21:47:04.951Z,82.11
2018-11-13T21:49:35.631Z,82.48
2018-11-13T21:52:07.500Z,82.45
2018-11-13T21:54:38.096Z,82.26
2018-11-13T21:57:08.754Z,81.88
2018-11-13T21:59:39.071Z,82.07
2018-11-13T22:02:10.015Z,82.26
2018-11-13T22:04:43.939Z,82.45
2018-11-13T22:07:14.704Z,82.27
2018-11-13T22:09:45.583Z,83.18
2018-11-13T22:12:16.424Z,83.19
2018-11-13T22:14:47.459Z,83.03
2018-11-13T22:17:18.734Z,83.12
2018-11-13T22:19:49.271Z,82.28
2018-11-13T22:22:19.912Z,83.39
2018-11-13T22:24:50.633Z,83.00
2018-11-13T22:27:21.328Z,83.43
2018-11-13T22:29:52.167Z,83.40
2018-11-13T22:32:22.782Z,83.68
2018-11-13T22:34:53.363Z,83.71
2018-11-13T22:37:24.052Z,82.81
2018-11-13T22:39:55.464Z,83.09
2018-11-13T22:42:25.848Z,83.14
2018-11-13T22:44:56.452Z,82.43
2018-11-13T22:47:27.036Z,83.10
2018-11-13T22:49:57.911Z,83.45
2018-11-13T22:52:28.692Z,83.71
2018-11-13T22:54:59.435Z,84.23
2018-11-13T22:57:30.129Z,84.43
2018-11-13T23:00:00.770Z,83.26
2018-11-13T23:02:31.560Z,83.02
2018-11-13T23:05:02.194Z,83.33
2018-11-13T23:07:32.492Z,83.18
2018-11-13T23:10:03.108Z,82.53
2018-11-13T23:12:33.680Z,83.13
2018-11-13T23:15:04.454Z,82.39
2018-11-13T23:17:35.198Z,83.25
2018-11-13T23:20:08.047Z,83.47
2018-11-13T23:22:38.694Z,82.93
2018-11-13T23:25:11.742Z,84.33
2018-11-13T23:27:43.367Z,84.08
2018-11-13T23:30:17.577Z,83.57
2018-11-13T23:32:48.547Z,83.64
2018-11-13T23:35:19.401Z,84.67
2018-11-13T23:37:51.201Z,84.75
2018-11-13T23:40:24.614Z,84.57
2018-11-13T23:42:55.497Z,83.87
2018-11-13T23:45:26.995Z,84.90
2018-11-13T23:47:57.440Z,84.67
2018-11-13T23:50:28.028Z,83.89
2018-11-13T23:52:58.620Z,83.79
2018-11-13T23:55:29.221Z,84.85
2018-11-13T23:57:59.974Z,84.01
